Time;durP1;ratioP1;P1;durP2;ratioP2;P2;SDS_P1;SDS_P2;PMS_P1;PMS_P2;Temp;Humidity;BMP_temperature;BMP_pressure;BME280_temperature;BME280_humidity;BME280_pressure;Samples;Min_cycle;Max_cycle;Signal;HPM_P1;HPM_P2
2022/07/09 00:01:29;;;;;;;2.20;1.40;;;22.70;92.40;;;;;;5076216;28;20227;-34
2022/07/09 00:03:56;;;;;;;4.60;1.30;;;22.70;92.40;;;;;;5043104;28;20262;-34
2022/07/09 00:06:23;;;;;;;2.95;1.45;;;22.60;92.40;;;;;;5044487;28;20204;-34
2022/07/09 00:08:50;;;;;;;3.00;1.50;;;22.60;92.40;;;;;;5047205;28;20206;-34
2022/07/09 00:11:18;;;;;;;1.90;1.45;;;22.50;92.40;;;;;;5049803;28;20212;-34
2022/07/09 00:13:47;;;;;;;2.10;1.30;;;22.50;92.50;;;;;;5050571;28;20213;-34
2022/07/09 00:16:14;;;;;;;1.63;1.20;;;22.50;92.60;;;;;;5050914;28;20306;-34
2022/07/09 00:18:42;;;;;;;1.20;1.10;;;22.40;92.50;;;;;;5050665;28;20311;-34
2022/07/09 00:21:09;;;;;;;2.95;1.48;;;22.40;92.60;;;;;;5050018;28;20561;-34
2022/07/09 00:23:39;;;;;;;1.17;1.08;;;22.30;92.60;;;;;;5044923;28;20197;-34
2022/07/09 00:26:06;;;;;;;2.40;1.38;;;22.30;92.60;;;;;;5031134;28;20207;-34
2022/07/09 00:28:33;;;;;;;1.23;1.13;;;22.30;92.50;;;;;;5030558;28;20304;-34
2022/07/09 00:31:04;;;;;;;2.53;1.40;;;22.20;92.60;;;;;;5030641;28;20296;-34
2022/07/09 00:33:31;;;;;;;4.60;1.63;;;22.20;92.60;;;;;;5030907;28;20205;-33
2022/07/09 00:36:01;;;;;;;1.50;1.15;;;22.20;92.60;;;;;;5030345;28;20205;-33
2022/07/09 00:38:28;;;;;;;1.40;1.30;;;22.10;92.70;;;;;;5030422;28;20216;-34
2022/07/09 00:40:56;;;;;;;1.42;1.33;;;22.10;92.60;;;;;;5030135;28;20201;-34
2022/07/09 00:43:23;;;;;;;2.30;1.50;;;22.10;92.70;;;;;;5030014;28;20211;-34
2022/07/09 00:45:51;;;;;;;6.32;1.48;;;22.00;92.60;;;;;;5030668;28;20280;-33
2022/07/09 00:48:19;;;;;;;2.13;1.42;;;22.00;92.70;;;;;;5030181;28;20215;-34
2022/07/09 00:50:47;;;;;;;5.05;1.60;;;22.00;92.70;;;;;;5029854;28;20244;-34
2022/07/09 00:53:16;;;;;;;4.32;1.52;;;21.90;92.60;;;;;;5029977;28;20201;-34
2022/07/09 00:55:44;;;;;;;1.67;1.33;;;21.90;92.70;;;;;;5030376;28;20661;-34
2022/07/09 00:58:16;;;;;;;2.30;1.40;;;21.90;92.80;;;;;;5029222;28;20236;-33
2022/07/09 01:00:44;;;;;;;2.95;1.25;;;21.80;92.80;;;;;;5033937;28;20654;-34
2022/07/09 01:03:13;;;;;;;1.90;1.50;;;21.80;92.70;;;;;;5031711;28;20205;-34
2022/07/09 01:05:41;;;;;;;3.13;1.30;;;21.70;92.80;;;;;;5029735;28;20658;-34
2022/07/09 01:08:11;;;;;;;3.40;1.40;;;21.70;92.80;;;;;;5029259;28;20316;-33
2022/07/09 01:10:39;;;;;;;1.63;1.48;;;21.70;92.80;;;;;;5037187;28;20205;-33
2022/07/09 01:13:07;;;;;;;2.00;1.27;;;21.60;92.80;;;;;;5031168;28;20429;-33
2022/07/09 01:15:34;;;;;;;3.67;1.67;;;21.60;92.80;;;;;;5031318;28;20312;-33
2022/07/09 01:18:02;;;;;;;1.45;1.27;;;21.60;92.90;;;;;;5036212;28;20266;-34
2022/07/09 01:20:30;;;;;;;2.45;1.27;;;21.50;92.80;;;;;;5029864;28;20208;-34
2022/07/09 01:23:03;;;;;;;2.20;1.45;;;21.50;92.90;;;;;;5031405;28;20706;-33
2022/07/09 01:25:41;;;;;;;1.58;1.38;;;21.50;92.90;;;;;;5043565;28;20259;-33
2022/07/09 01:28:09;;;;;;;2.45;1.90;;;21.40;93.10;;;;;;5037255;28;20245;-34
2022/07/09 01:30:40;;;;;;;2.65;1.50;;;21.40;92.90;;;;;;5038872;28;20212;-34
2022/07/09 01:33:07;;;;;;;1.83;1.45;;;21.40;93.00;;;;;;5030141;28;20209;-34
2022/07/09 01:35:39;;;;;;;1.88;1.15;;;21.30;92.90;;;;;;5040427;28;20234;-33
2022/07/09 01:38:06;;;;;;;2.25;1.60;;;21.30;92.90;;;;;;5049631;28;20577;-33
2022/07/09 01:40:33;;;;;;;2.80;1.42;;;21.20;92.90;;;;;;5049095;28;20223;-34
2022/07/09 01:43:00;;;;;;;2.53;1.48;;;21.20;92.90;;;;;;5048857;28;20251;-33
2022/07/09 01:45:32;;;;;;;2.65;1.40;;;21.20;92.90;;;;;;5049031;28;20204;-34
2022/07/09 01:47:59;;;;;;;2.45;1.35;;;21.10;92.90;;;;;;5048319;28;20754;-33
2022/07/09 01:50:29;;;;;;;2.55;1.42;;;21.10;92.90;;;;;;5047632;28;20219;-33
2022/07/09 01:52:58;;;;;;;3.60;1.40;;;21.10;92.90;;;;;;5034191;28;20296;-34
2022/07/09 01:55:28;;;;;;;2.00;1.55;;;21.00;92.90;;;;;;5029169;28;20283;-34
2022/07/09 01:57:55;;;;;;;2.75;1.27;;;21.00;93.00;;;;;;5028135;28;20727;-33
2022/07/09 02:00:23;;;;;;;1.50;1.40;;;21.00;93.00;;;;;;5042155;28;20253;-33
2022/07/09 02:02:50;;;;;;;1.42;1.30;;;20.90;93.00;;;;;;5029156;28;20630;-34
2022/07/09 02:05:17;;;;;;;4.38;1.70;;;20.90;93.00;;;;;;5029174;28;20736;-34
2022/07/09 02:07:47;;;;;;;3.03;1.83;;;20.90;93.00;;;;;;5028555;28;20201;-34
2022/07/09 02:10:15;;;;;;;3.17;1.83;;;20.80;93.00;;;;;;5029174;28;20224;-34
2022/07/09 02:12:42;;;;;;;3.67;1.70;;;20.80;93.00;;;;;;5028325;28;20193;-33
2022/07/09 02:15:12;;;;;;;2.13;1.70;;;20.80;93.10;;;;;;5028803;28;20691;-34
2022/07/09 02:17:40;;;;;;;3.28;1.90;;;20.80;93.10;;;;;;5028991;28;20308;-34
2022/07/09 02:20:11;;;;;;;2.00;1.75;;;20.70;93.00;;;;;;5028306;28;20221;-34
2022/07/09 02:22:39;;;;;;;2.17;1.92;;;20.70;93.10;;;;;;5034741;28;20582;-33
2022/07/09 02:25:06;;;;;;;3.25;1.80;;;20.70;93.10;;;;;;5047958;28;20250;-34
2022/07/09 02:27:38;;;;;;;4.00;1.90;;;20.70;93.10;;;;;;5028146;28;20311;-33
2022/07/09 02:30:06;;;;;;;2.78;1.65;;;20.70;93.20;;;;;;5029022;28;20197;-34
2022/07/09 02:32:33;;;;;;;2.25;1.80;;;20.60;93.10;;;;;;5028293;28;20249;-34
2022/07/09 02:35:04;;;;;;;1.63;1.52;;;20.60;93.20;;;;;;5027648;28;20569;-34
2022/07/09 02:37:32;;;;;;;3.30;1.70;;;20.60;93.20;;;;;;5026711;28;20196;-34
2022/07/09 02:40:01;;;;;;;4.18;1.85;;;20.60;93.20;;;;;;5028231;28;20675;-34
2022/07/09 02:42:29;;;;;;;2.30;1.50;;;20.60;93.30;;;;;;5028062;28;20228;-33
2022/07/09 02:44:56;;;;;;;2.75;1.73;;;20.60;93.30;;;;;;5028380;28;20228;-34
2022/07/09 02:47:26;;;;;;;2.65;1.52;;;20.50;93.20;;;;;;5028394;28;20668;-34
2022/07/09 02:49:53;;;;;;;1.73;1.63;;;20.50;93.30;;;;;;5027636;28;20220;-34
2022/07/09 02:52:20;;;;;;;2.22;1.70;;;20.50;93.30;;;;;;5026809;28;20199;-34
2022/07/09 02:54:48;;;;;;;1.90;1.42;;;20.50;93.40;;;;;;5028211;28;20739;-34
2022/07/09 02:57:15;;;;;;;1.90;1.70;;;20.50;93.40;;;;;;5027597;28;20311;-34
2022/07/09 02:59:42;;;;;;;3.15;1.63;;;20.50;93.40;;;;;;5035286;28;20223;-34
2022/07/09 03:02:09;;;;;;;2.95;1.90;;;20.50;93.50;;;;;;5033490;28;20581;-34
2022/07/09 03:04:39;;;;;;;2.90;1.75;;;20.50;93.50;;;;;;5028014;28;20240;-34
2022/07/09 03:07:09;;;;;;;3.40;1.70;;;20.50;93.60;;;;;;5027905;28;20679;-33
2022/07/09 03:09:38;;;;;;;2.22;1.80;;;20.40;93.50;;;;;;5026584;28;20209;-34
2022/07/09 03:12:08;;;;;;;3.00;1.92;;;20.40;93.50;;;;;;5027844;28;20216;-34
2022/07/09 03:14:36;;;;;;;2.22;1.83;;;20.40;93.50;;;;;;5028762;28;20200;-34
2022/07/09 03:17:05;;;;;;;3.60;1.60;;;20.40;93.50;;;;;;5035457;28;20247;-34
2022/07/09 03:19:35;;;;;;;2.20;1.75;;;20.30;93.60;;;;;;5046756;28;20590;-34
2022/07/09 03:22:04;;;;;;;2.78;2.00;;;20.30;93.70;;;;;;5047460;28;20266;-33
2022/07/09 03:24:32;;;;;;;2.85;2.05;;;20.30;93.60;;;;;;5047889;28;20188;-34
2022/07/09 03:27:02;;;;;;;2.03;1.80;;;20.30;93.60;;;;;;5045889;28;20300;-34
2022/07/09 03:29:31;;;;;;;2.00;1.73;;;20.20;93.60;;;;;;5047839;28;20196;-34
2022/07/09 03:31:58;;;;;;;3.08;1.75;;;20.20;93.60;;;;;;5047015;28;20248;-34
2022/07/09 03:34:30;;;;;;;3.38;2.00;;;20.20;93.70;;;;;;5037167;28;20684;-33
2022/07/09 03:37:00;;;;;;;2.28;1.75;;;20.20;93.70;;;;;;5027339;28;20205;-39
2022/07/09 03:39:30;;;;;;;3.03;2.05;;;20.10;93.60;;;;;;5030945;28;20270;-39
2022/07/09 03:41:57;;;;;;;2.70;1.98;;;20.10;93.70;;;;;;5047711;28;20730;-34
2022/07/09 03:44:24;;;;;;;2.95;2.25;;;20.10;93.70;;;;;;5048326;28;20641;-34
2022/07/09 03:46:52;;;;;;;2.88;2.28;;;20.10;93.80;;;;;;5045238;28;20284;-34
2022/07/09 03:49:22;;;;;;;3.13;2.50;;;20.00;93.70;;;;;;5045439;28;20216;-34
2022/07/09 03:51:50;;;;;;;3.00;2.10;;;20.00;93.70;;;;;;5036777;28;20594;-34
2022/07/09 03:54:37;;;;;;;3.28;2.40;;;20.00;93.80;;;;;;5031436;28;20209;-34
2022/07/09 03:57:05;;;;;;;3.40;2.25;;;20.00;93.80;;;;;;5030936;28;20299;-34
2022/07/09 03:59:32;;;;;;;3.38;2.72;;;20.00;93.80;;;;;;5034117;28;20224;-34
2022/07/09 04:01:59;;;;;;;3.83;2.53;;;20.00;93.90;;;;;;5071144;28;20203;-34
2022/07/09 04:04:26;;;;;;;4.90;2.60;;;20.00;93.90;;;;;;5062428;28;20314;-34
2022/07/09 04:06:55;;;;;;;3.33;3.03;;;20.00;93.90;;;;;;5030651;28;20201;-34
2022/07/09 04:09:25;;;;;;;3.25;2.90;;;20.00;93.90;;;;;;5031264;28;20774;-34
2022/07/09 04:11:52;;;;;;;5.53;3.08;;;20.00;94.20;;;;;;5030908;28;20671;-34
2022/07/09 04:14:19;;;;;;;4.75;3.30;;;20.00;93.90;;;;;;5029416;28;20201;-34
2022/07/09 04:16:53;;;;;;;4.07;3.22;;;20.00;94.00;;;;;;5031372;28;20200;-40
2022/07/09 04:19:21;;;;;;;4.40;3.17;;;20.00;94.10;;;;;;5031029;28;20598;-39
2022/07/09 04:21:48;;;;;;;3.95;3.55;;;20.00;94.10;;;;;;5031267;28;20207;-39
2022/07/09 04:24:18;;;;;;;7.18;3.70;;;20.00;94.10;;;;;;5032105;28;20262;-40
2022/07/09 04:26:45;;;;;;;3.72;3.25;;;20.00;94.10;;;;;;5050741;28;20227;-40
2022/07/09 04:29:12;;;;;;;5.25;4.05;;;20.10;94.20;;;;;;5050250;28;20211;-39
2022/07/09 04:31:39;;;;;;;4.53;3.50;;;20.10;94.20;;;;;;5050674;28;20231;-38
2022/07/09 04:34:06;;;;;;;4.28;3.58;;;20.10;94.30;;;;;;5049047;28;20621;-38
2022/07/09 04:36:36;;;;;;;5.80;4.13;;;20.20;94.30;;;;;;5050217;28;20552;-38
2022/07/09 04:39:04;;;;;;;4.90;3.83;;;20.10;94.30;;;;;;5042287;28;20259;-38
2022/07/09 04:41:34;;;;;;;5.95;4.13;;;20.20;94.40;;;;;;5049657;28;20208;-38
2022/07/09 04:44:01;;;;;;;6.70;4.25;;;20.20;94.40;;;;;;5050159;28;20208;-33
2022/07/09 04:46:32;;;;;;;4.13;3.70;;;20.20;94.40;;;;;;5050392;28;20208;-33
2022/07/09 04:49:01;;;;;;;4.75;3.38;;;20.20;94.50;;;;;;5048986;28;20710;-32
2022/07/09 04:51:29;;;;;;;5.53;4.03;;;20.20;94.40;;;;;;5049819;28;20214;-32
2022/07/09 04:53:56;;;;;;;6.13;3.97;;;20.20;94.40;;;;;;5050218;28;20299;-32
2022/07/09 04:56:26;;;;;;;5.05;3.67;;;20.30;94.50;;;;;;5045250;28;20708;-32
2022/07/09 04:58:56;;;;;;;5.38;4.10;;;20.30;94.50;;;;;;5030200;28;20602;-32
2022/07/09 05:01:25;;;;;;;4.82;3.33;;;20.30;94.60;;;;;;5064538;28;20620;-33
2022/07/09 05:03:55;;;;;;;4.15;3.72;;;20.30;94.60;;;;;;5069910;28;20212;-33
2022/07/09 05:06:25;;;;;;;5.72;4.18;;;20.30;94.60;;;;;;5069681;28;20682;-38
2022/07/09 05:08:53;;;;;;;5.65;3.88;;;20.30;94.60;;;;;;5065445;28;20274;-38
2022/07/09 05:11:22;;;;;;;5.05;3.47;;;20.40;94.70;;;;;;5049758;28;20227;-38
2022/07/09 05:13:50;;;;;;;3.97;3.38;;;20.40;94.80;;;;;;5033315;28;20675;-38
2022/07/09 05:16:17;;;;;;;5.75;3.58;;;20.40;94.70;;;;;;5039135;28;20208;-38
2022/07/09 05:18:46;;;;;;;5.53;4.07;;;20.50;94.80;;;;;;5049749;28;20319;-38
2022/07/09 05:21:14;;;;;;;6.18;4.05;;;20.50;94.80;;;;;;5049108;28;20683;-39
2022/07/09 05:23:43;;;;;;;6.13;3.80;;;20.50;94.80;;;;;;5049994;28;20196;-38
2022/07/09 05:26:10;;;;;;;5.63;4.00;;;20.60;94.90;;;;;;5049318;28;20197;-38
2022/07/09 05:28:39;;;;;;;5.28;3.70;;;20.60;94.90;;;;;;5049201;28;20208;-38
2022/07/09 05:31:07;;;;;;;5.95;3.70;;;20.60;94.90;;;;;;5048714;28;20297;-38
2022/07/09 05:33:56;;;;;;;3.60;3.30;;;20.70;95.00;;;;;;5034410;28;20282;-38
2022/07/09 05:36:28;;;;;;;6.28;3.60;;;20.70;95.00;;;;;;5027768;28;20620;-38
2022/07/09 05:38:56;;;;;;;4.82;3.30;;;20.80;95.10;;;;;;5037839;28;20729;-38
2022/07/09 05:41:24;;;;;;;7.22;3.60;;;20.80;95.00;;;;;;5049285;28;20231;-38
2022/07/09 05:43:57;;;;;;;5.80;3.25;;;20.80;95.10;;;;;;5047509;28;20678;-38
2022/07/09 05:46:24;;;;;;;9.35;3.80;;;20.90;95.10;;;;;;5048440;28;20217;-38
2022/07/09 05:48:52;;;;;;;5.85;3.65;;;20.90;95.10;;;;;;5049180;28;20200;-38
2022/07/09 05:51:22;;;;;;;4.68;3.78;;;20.90;95.10;;;;;;5029841;28;20658;-39
2022/07/09 05:53:49;;;;;;;3.88;3.25;;;20.90;95.10;;;;;;5029274;28;20294;-38
2022/07/09 05:56:16;;;;;;;4.80;3.65;;;20.90;95.10;;;;;;5029607;28;20224;-39
2022/07/09 05:58:46;;;;;;;4.68;3.65;;;21.00;95.20;;;;;;5028638;28;20229;-39
2022/07/09 06:01:13;;;;;;;6.15;3.35;;;21.00;95.20;;;;;;5060801;28;20220;-39
2022/07/09 06:03:42;;;;;;;5.78;3.53;;;21.10;95.30;;;;;;5055287;28;20299;-39
2022/07/09 06:06:10;;;;;;;10.98;3.72;;;21.10;95.30;;;;;;5029048;28;20754;-39
2022/07/09 06:08:39;;;;;;;3.90;3.50;;;21.10;95.40;;;;;;5039200;28;20949;-38
2022/07/09 06:11:07;;;;;;;5.57;3.40;;;21.20;95.40;;;;;;5028952;28;20207;-39
2022/07/09 06:13:40;;;;;;;4.00;3.10;;;21.30;95.50;;;;;;5028890;28;20212;-38
2022/07/09 06:16:07;;;;;;;5.93;3.72;;;21.30;95.50;;;;;;5028725;28;20208;-39
2022/07/09 06:18:34;;;;;;;6.78;3.97;;;21.40;95.50;;;;;;5028677;28;20205;-39
2022/07/09 06:21:05;;;;;;;4.53;3.60;;;21.40;95.60;;;;;;5028759;28;20696;-38
2022/07/09 06:23:32;;;;;;;5.40;3.58;;;21.50;95.60;;;;;;5031474;28;20220;-38
2022/07/09 06:26:00;;;;;;;4.25;3.60;;;21.50;95.70;;;;;;5048376;28;20307;-39
2022/07/09 06:28:29;;;;;;;4.65;3.65;;;21.60;95.70;;;;;;5048007;28;20442;-38
2022/07/09 06:30:56;;;;;;;4.85;3.60;;;21.70;95.80;;;;;;5048111;28;20295;-38
2022/07/09 06:33:24;;;;;;;3.97;3.58;;;21.70;95.80;;;;;;5048305;28;20667;-38
2022/07/09 06:35:51;;;;;;;6.55;3.40;;;21.80;95.80;;;;;;5048047;28;20227;-38
2022/07/09 06:38:21;;;;;;;5.00;3.38;;;21.90;95.90;;;;;;5036375;28;20209;-38
2022/07/09 06:40:54;;;;;;;4.35;3.22;;;21.90;95.90;;;;;;5028586;28;20757;-38
2022/07/09 06:43:24;;;;;;;4.63;3.28;;;22.00;96.00;;;;;;5027744;28;20193;-38
2022/07/09 06:45:53;;;;;;;5.80;3.53;;;22.00;96.00;;;;;;5028130;28;20231;-38
2022/07/09 06:48:20;;;;;;;7.22;3.30;;;22.10;96.00;;;;;;5028151;28;20213;-38
2022/07/09 06:50:50;;;;;;;5.95;3.40;;;22.20;96.10;;;;;;5010419;28;20211;-38
2022/07/09 06:53:20;;;;;;;7.88;3.85;;;22.20;96.10;;;;;;5028412;28;20201;-33
2022/07/09 06:55:50;;;;;;;5.18;3.40;;;22.30;96.20;;;;;;5028706;28;20208;-33
2022/07/09 06:58:17;;;;;;;4.25;3.00;;;22.40;96.30;;;;;;5036817;28;20250;-33
2022/07/09 07:00:44;;;;;;;3.40;2.63;;;22.40;96.30;;;;;;5059971;28;20226;-33
2022/07/09 07:03:12;;;;;;;5.18;3.40;;;22.50;96.40;;;;;;5068187;28;20214;-34
2022/07/09 07:05:41;;;;;;;4.82;3.05;;;22.60;96.40;;;;;;5067652;28;20234;-33
2022/07/09 07:08:09;;;;;;;3.72;2.80;;;22.60;96.40;;;;;;5066569;28;20203;-33
2022/07/09 07:10:36;;;;;;;5.20;3.67;;;22.60;96.40;;;;;;5048808;28;20247;-33
2022/07/09 07:13:10;;;;;;;4.25;3.10;;;22.70;96.50;;;;;;5028953;28;20618;-33
2022/07/09 07:15:37;;;;;;;7.68;3.30;;;22.70;96.50;;;;;;5040398;28;20270;-33
2022/07/09 07:18:05;;;;;;;6.20;3.20;;;22.80;96.60;;;;;;5041534;28;20223;-33
2022/07/09 07:20:32;;;;;;;6.25;3.25;;;22.80;96.60;;;;;;5028817;28;20221;-33
2022/07/09 07:22:59;;;;;;;6.35;3.45;;;22.80;96.60;;;;;;5030510;28;20213;-33
2022/07/09 07:25:29;;;;;;;4.20;2.95;;;22.80;96.60;;;;;;5031840;28;20251;-33
2022/07/09 07:27:56;;;;;;;5.35;2.92;;;22.90;96.70;;;;;;5030505;28;20197;-33
2022/07/09 07:30:24;;;;;;;5.05;3.38;;;23.00;96.80;;;;;;5031574;28;20279;-33
2022/07/09 07:32:53;;;;;;;4.72;2.90;;;23.00;96.80;;;;;;5030893;28;20220;-32
2022/07/09 07:35:20;;;;;;;5.45;3.35;;;23.10;96.90;;;;;;5031027;28;20215;-32
2022/07/09 07:37:47;;;;;;;6.25;2.80;;;23.20;96.90;;;;;;5031477;28;20204;-32
2022/07/09 07:40:17;;;;;;;5.70;2.80;;;23.20;96.90;;;;;;5031494;28;20217;-32
2022/07/09 07:42:46;;;;;;;3.25;2.20;;;23.30;97.00;;;;;;5031340;28;20296;-32
2022/07/09 07:45:14;;;;;;;2.35;2.15;;;23.30;97.00;;;;;;5031838;28;20205;-35
2022/07/09 07:47:41;;;;;;;4.22;2.38;;;23.40;97.10;;;;;;5031661;28;20200;-35
2022/07/09 07:50:08;;;;;;;3.28;2.40;;;23.40;97.00;;;;;;5030834;28;20702;-33
2022/07/09 07:52:36;;;;;;;3.70;2.42;;;23.50;97.10;;;;;;5031865;28;20691;-32
2022/07/09 07:55:03;;;;;;;2.78;2.28;;;23.60;97.20;;;;;;5031436;28;20228;-32
2022/07/09 07:57:31;;;;;;;4.72;2.30;;;23.70;97.30;;;;;;5029300;28;20248;-33
2022/07/09 07:59:58;;;;;;;2.78;2.22;;;23.80;97.30;;;;;;5041318;28;20223;-32
2022/07/09 08:02:25;;;;;;;3.40;2.45;;;23.80;97.20;;;;;;5062275;28;20579;-33
2022/07/09 08:04:53;;;;;;;4.15;2.60;;;23.90;97.20;;;;;;5029566;28;20554;-32
2022/07/09 08:07:20;;;;;;;4.07;2.47;;;24.00;97.10;;;;;;5048946;28;20546;-33
2022/07/09 08:09:49;;;;;;;5.40;2.35;;;24.00;96.90;;;;;;5049501;28;20230;-32
2022/07/09 08:12:16;;;;;;;6.93;3.00;;;24.00;96.90;;;;;;5050767;28;20220;-32
2022/07/09 08:14:46;;;;;;;4.70;2.83;;;24.10;97.00;;;;;;5050895;28;20196;-33
2022/07/09 08:17:13;;;;;;;4.38;2.40;;;24.10;97.00;;;;;;5050588;28;20475;-33
2022/07/09 08:19:43;;;;;;;3.72;2.60;;;24.20;97.10;;;;;;5049969;28;20248;-33
2022/07/09 08:22:10;;;;;;;5.90;2.35;;;24.20;96.90;;;;;;5050390;28;20289;-33
2022/07/09 08:24:37;;;;;;;6.22;3.05;;;24.30;96.80;;;;;;5032498;28;20209;-33
2022/07/09 08:27:05;;;;;;;3.50;2.08;;;24.30;96.70;;;;;;5041264;28;20675;-33
2022/07/09 08:29:32;;;;;;;6.80;2.80;;;24.30;96.70;;;;;;5030945;28;20632;-33
2022/07/09 08:31:59;;;;;;;4.28;2.47;;;24.30;96.70;;;;;;5030206;28;20632;-33
2022/07/09 08:34:27;;;;;;;6.38;3.42;;;24.30;96.60;;;;;;5029468;28;20713;-33
2022/07/09 08:36:54;;;;;;;5.32;3.80;;;24.30;96.30;;;;;;5029318;28;20225;-33
2022/07/09 08:39:24;;;;;;;6.72;3.63;;;24.30;96.40;;;;;;5032672;28;20205;-33
2022/07/09 08:41:51;;;;;;;4.30;2.85;;;24.40;96.50;;;;;;5033664;28;20225;-33
2022/07/09 08:44:19;;;;;;;8.15;3.97;;;24.40;96.50;;;;;;5029960;28;20717;-33
2022/07/09 08:46:47;;;;;;;5.10;3.42;;;24.40;96.50;;;;;;5030209;28;20628;-33
2022/07/09 08:49:15;;;;;;;5.68;3.90;;;24.50;96.60;;;;;;5028712;28;20201;-33
2022/07/09 08:51:44;;;;;;;5.63;3.55;;;24.50;96.60;;;;;;5029633;28;20201;-33
2022/07/09 08:54:14;;;;;;;5.18;3.38;;;24.50;96.60;;;;;;5030388;28;20358;-33
2022/07/09 08:56:41;;;;;;;6.68;4.50;;;24.60;96.70;;;;;;5034291;28;20208;-33
2022/07/09 08:59:09;;;;;;;13.70;4.80;;;24.60;96.60;;;;;;5049573;28;20313;-33
2022/07/09 09:01:36;;;;;;;10.77;4.85;;;24.60;96.60;;;;;;5068985;28;20230;-33
2022/07/09 09:04:04;;;;;;;6.45;4.00;;;24.70;96.60;;;;;;5068481;28;20214;-32
2022/07/09 09:06:37;;;;;;;7.72;4.43;;;24.70;96.70;;;;;;5068145;28;20619;-33
2022/07/09 09:09:18;;;;;;;6.40;4.25;;;24.70;96.70;;;;;;5054920;28;20193;-33
2022/07/09 09:11:55;;;;;;;4.70;4.20;;;24.80;96.70;;;;;;5045519;28;20220;-33
2022/07/09 09:14:23;;;;;;;5.70;3.55;;;24.80;96.70;;;;;;5039251;28;20297;-33
2022/07/09 09:16:50;;;;;;;8.10;5.15;;;24.90;96.80;;;;;;5028257;28;20300;-33
2022/07/09 09:19:22;;;;;;;7.65;4.72;;;25.00;96.80;;;;;;5029639;28;20227;-33
2022/07/09 09:21:53;;;;;;;7.38;4.30;;;25.00;96.70;;;;;;5029282;28;20777;-39
2022/07/09 09:24:29;;;;;;;4.70;4.10;;;25.00;96.70;;;;;;5029499;28;20577;-38
2022/07/09 09:27:00;;;;;;;5.82;5.05;;;25.10;96.80;;;;;;5029705;28;20240;-38
2022/07/09 09:29:27;;;;;;;7.00;4.93;;;25.10;96.70;;;;;;5029888;28;20221;-38
2022/07/09 09:31:55;;;;;;;6.50;5.00;;;25.10;96.70;;;;;;5032948;28;20236;-38
2022/07/09 09:34:23;;;;;;;8.45;5.75;;;25.20;96.60;;;;;;5038371;28;20296;-38
2022/07/09 09:36:52;;;;;;;8.43;5.78;;;25.20;96.70;;;;;;5035500;28;20273;-38
2022/07/09 09:39:29;;;;;;;9.95;5.28;;;25.20;96.70;;;;;;5047951;28;20583;-38
2022/07/09 09:42:00;;;;;;;9.27;5.72;;;25.20;96.70;;;;;;5040484;28;20220;-38
2022/07/09 09:44:32;;;;;;;5.80;5.07;;;25.20;96.70;;;;;;5029856;28;20691;-38
2022/07/09 09:47:00;;;;;;;8.02;5.10;;;25.20;96.60;;;;;;5029198;28;20197;-40
2022/07/09 09:49:30;;;;;;;9.27;4.97;;;25.20;96.60;;;;;;5046752;28;20277;-38
2022/07/09 09:52:03;;;;;;;9.25;6.10;;;25.30;96.70;;;;;;5048498;28;20208;-39
2022/07/09 09:54:42;;;;;;;9.95;7.78;;;25.30;96.70;;;;;;5047615;28;20253;-38
2022/07/09 09:57:16;;;;;;;8.15;6.88;;;25.30;96.60;;;;;;5048167;28;20215;-38
2022/07/09 09:59:45;;;;;;;7.75;5.55;;;25.30;96.60;;;;;;5052521;28;20202;-38
2022/07/09 10:02:16;;;;;;;8.30;6.10;;;25.40;96.60;;;;;;5046860;28;20236;-38
2022/07/09 10:04:44;;;;;;;8.32;6.55;;;25.40;96.70;;;;;;5011807;28;20316;-38
2022/07/09 10:07:16;;;;;;;7.00;5.78;;;25.50;96.70;;;;;;5028756;28;20203;-38
2022/07/09 10:09:55;;;;;;;6.70;5.63;;;25.50;96.70;;;;;;5039783;28;20235;-38
2022/07/09 10:12:30;;;;;;;7.70;6.55;;;25.60;96.80;;;;;;5048275;28;20294;-38
2022/07/09 10:14:57;;;;;;;9.07;6.43;;;25.70;96.80;;;;;;5048828;28;20606;-38
2022/07/09 10:17:28;;;;;;;9.18;5.90;;;25.70;96.80;;;;;;5048594;28;20199;-38
2022/07/09 10:20:04;;;;;;;7.05;5.78;;;25.70;96.70;;;;;;5031347;28;20231;-38
2022/07/09 10:22:41;;;;;;;7.20;6.10;;;25.70;96.70;;;;;;5039731;28;20753;-38
2022/07/09 10:25:22;;;;;;;10.07;7.75;;;25.80;96.70;;;;;;5048813;28;20196;-33
2022/07/09 10:27:49;;;;;;;9.95;7.63;;;25.80;96.60;;;;;;5048129;28;20903;-33
2022/07/09 10:30:32;;;;;;;7.95;6.10;;;25.80;96.60;;;;;;5048169;28;20587;-33
2022/07/09 10:33:07;;;;;;;9.25;7.63;;;25.80;96.70;;;;;;5048262;28;20254;-33
2022/07/09 10:35:51;;;;;;;9.18;8.05;;;25.90;96.70;;;;;;5040915;28;20232;-33
2022/07/09 10:38:22;;;;;;;12.02;9.80;;;25.90;96.70;;;;;;5029711;28;20232;-33
2022/07/09 10:40:57;;;;;;;12.23;9.00;;;26.00;96.70;;;;;;5047891;28;20219;-33
2022/07/09 10:43:44;;;;;;;11.77;9.35;;;26.00;96.80;;;;;;5042081;28;20228;-33
2022/07/09 10:46:13;;;;;;;11.73;9.43;;;26.10;96.80;;;;;;5042039;28;20282;-33
2022/07/09 10:48:44;;;;;;;14.00;10.98;;;26.10;96.80;;;;;;5047895;28;20200;-33
2022/07/09 10:51:23;;;;;;;14.25;12.68;;;26.20;96.80;;;;;;5047913;28;20579;-33
2022/07/09 10:53:50;;;;;;;13.95;11.57;;;26.20;96.80;;;;;;5032124;28;20212;-33
2022/07/09 10:56:21;;;;;;;12.15;10.90;;;26.20;96.70;;;;;;5037864;28;20218;-33
2022/07/09 10:58:50;;;;;;;12.98;11.68;;;26.30;96.80;;;;;;5047458;28;20271;-33
2022/07/09 11:01:23;;;;;;;11.98;10.63;;;26.30;96.70;;;;;;5064257;28;20215;-33
2022/07/09 11:03:51;;;;;;;14.07;11.45;;;26.40;96.80;;;;;;5066226;28;20223;-33
2022/07/09 11:06:19;;;;;;;12.63;11.27;;;26.40;96.70;;;;;;5067517;28;20253;-33
2022/07/09 11:08:47;;;;;;;11.02;9.40;;;26.40;96.60;;;;;;5068000;28;20227;-33
2022/07/09 11:11:23;;;;;;;14.65;11.45;;;26.40;96.70;;;;;;5028614;28;20237;-33
2022/07/09 11:13:56;;;;;;;13.80;12.23;;;26.40;96.70;;;;;;5026558;28;20315;-33
2022/07/09 11:16:24;;;;;;;12.75;11.45;;;26.40;96.70;;;;;;5027476;28;20197;-34
2022/07/09 11:18:53;;;;;;;10.68;9.68;;;26.40;96.80;;;;;;5027655;28;20282;-33
2022/07/09 11:21:25;;;;;;;12.27;10.70;;;26.40;96.80;;;;;;5027197;28;20286;-34
2022/07/09 11:23:52;;;;;;;8.35;7.43;;;26.40;96.70;;;;;;5027526;28;20231;-33
2022/07/09 11:26:22;;;;;;;8.00;6.20;;;26.40;96.70;;;;;;5027979;28;20226;-34
2022/07/09 11:28:51;;;;;;;7.57;5.10;;;26.40;96.70;;;;;;5026743;28;20250;-33
2022/07/09 11:31:20;;;;;;;5.93;5.07;;;26.40;96.60;;;;;;5045144;28;20314;-32
2022/07/09 11:36:42;;;;;;;4.88;3.00;;;26.40;96.20;;;;;;5047021;28;20211;-34
2022/07/09 11:39:10;;;;;;;3.83;2.70;;;26.30;96.20;;;;;;5046981;28;20659;-33
2022/07/09 11:41:44;;;;;;;3.80;2.38;;;26.20;96.10;;;;;;5047265;28;20228;-33
2022/07/09 11:44:24;;;;;;;3.58;2.40;;;26.20;96.10;;;;;;5046340;28;20227;-33
2022/07/09 11:47:14;;;;;;;4.93;2.10;;;26.10;95.70;;;;;;5041057;28;20217;-33
2022/07/09 11:49:44;;;;;;;1.52;1.40;;;26.00;95.60;;;;;;5028018;28;20204;-34
2022/07/09 11:52:26;;;;;;;2.80;1.30;;;25.90;95.60;;;;;;5038288;28;20197;-33
2022/07/09 11:55:01;;;;;;;1.33;1.00;;;25.80;95.50;;;;;;5027321;28;20232;-33
2022/07/09 11:57:30;;;;;;;2.70;1.10;;;25.80;95.30;;;;;;5025539;28;20240;-33
2022/07/09 12:00:00;;;;;;;1.85;1.20;;;25.70;95.20;;;;;;5037003;28;20758;-34
2022/07/09 12:02:36;;;;;;;1.25;1.00;;;25.70;95.30;;;;;;5027469;28;20232;-33
2022/07/09 12:05:07;;;;;;;2.58;1.30;;;25.70;95.40;;;;;;5027786;28;20255;-34
2022/07/09 12:07:37;;;;;;;1.67;1.00;;;25.60;95.30;;;;;;5029554;28;20259;-34
2022/07/09 12:10:10;;;;;;;0.90;0.80;;;25.60;95.00;;;;;;5030849;28;20215;-34
2022/07/09 12:12:40;;;;;;;1.08;0.75;;;25.60;95.20;;;;;;5030279;28;20274;-34
2022/07/09 12:15:10;;;;;;;2.33;0.80;;;25.60;95.50;;;;;;5030650;28;20782;-34
2022/07/09 12:17:37;;;;;;;1.92;1.00;;;25.70;95.30;;;;;;5031316;28;20304;-34
2022/07/09 12:20:07;;;;;;;1.38;0.85;;;25.70;95.30;;;;;;5030560;28;20224;-34
2022/07/09 12:22:35;;;;;;;1.10;0.57;;;25.70;95.40;;;;;;5029279;28;20328;-38
2022/07/09 12:25:02;;;;;;;1.80;0.88;;;25.70;95.40;;;;;;5030427;28;20232;-38
2022/07/09 12:27:30;;;;;;;1.00;0.70;;;25.70;95.30;;;;;;5028937;28;20251;-38
2022/07/09 12:29:57;;;;;;;3.92;1.48;;;25.80;95.00;;;;;;5030665;28;20224;-38
2022/07/09 12:32:24;;;;;;;1.40;0.70;;;25.80;95.20;;;;;;5030516;28;20217;-38
2022/07/09 12:34:52;;;;;;;1.48;0.70;;;25.80;95.10;;;;;;5030625;28;20602;-38
2022/07/09 12:37:19;;;;;;;2.17;0.65;;;25.80;94.90;;;;;;5031370;28;20399;-38
2022/07/09 12:39:52;;;;;;;2.72;1.00;;;25.80;95.00;;;;;;5048614;28;20212;-38
2022/07/09 12:42:20;;;;;;;1.40;0.70;;;25.80;94.50;;;;;;5044656;28;20286;-38
2022/07/09 12:44:47;;;;;;;1.75;0.75;;;25.70;94.90;;;;;;5030405;28;20201;-38
2022/07/09 12:47:15;;;;;;;2.25;0.68;;;25.70;94.90;;;;;;5028705;28;20759;-38
2022/07/09 12:49:42;;;;;;;2.78;0.70;;;25.70;94.50;;;;;;5030004;28;20359;-34
2022/07/09 12:52:09;;;;;;;1.35;0.80;;;25.70;94.80;;;;;;5030482;28;20225;-33
2022/07/09 12:54:37;;;;;;;1.98;1.08;;;25.70;94.90;;;;;;5034253;28;20214;-33
2022/07/09 12:57:04;;;;;;;1.75;0.77;;;25.70;95.10;;;;;;5045283;28;20216;-34
2022/07/09 12:59:38;;;;;;;1.50;0.70;;;25.70;94.80;;;;;;5043352;28;20718;-34